sensor_id;sensor_type;location;lat;lon;timestamp;P1;durP1;ratioP1;P2;durP2;ratioP2
37407;SDS011;24866;50.248;8.252;2023-09-08T00:00:49;6.97;;;5.80;;
37407;SDS011;24866;50.248;8.252;2023-09-08T00:03:19;6.97;;;5.60;;
37407;SDS011;24866;50.248;8.252;2023-09-08T00:05:49;7.78;;;4.85;;
37407;SDS011;24866;50.248;8.252;2023-09-08T00:08:19;8.10;;;5.72;;
37407;SDS011;24866;50.248;8.252;2023-09-08T00:10:49;8.50;;;4.88;;
37407;SDS011;24866;50.248;8.252;2023-09-08T00:13:20;6.95;;;5.00;;
37407;SDS011;24866;50.248;8.252;2023-09-08T00:15:51;8.45;;;5.50;;
37407;SDS011;24866;50.248;8.252;2023-09-08T00:18:21;8.73;;;5.55;;
37407;SDS011;24866;50.248;8.252;2023-09-08T00:20:51;8.02;;;5.40;;
37407;SDS011;24866;50.248;8.252;2023-09-08T00:23:20;8.40;;;6.40;;
37407;SDS011;24866;50.248;8.252;2023-09-08T00:25:50;6.53;;;5.05;;
37407;SDS011;24866;50.248;8.252;2023-09-08T00:28:20;8.02;;;5.10;;
37407;SDS011;24866;50.248;8.252;2023-09-08T00:30:51;7.72;;;5.10;;
37407;SDS011;24866;50.248;8.252;2023-09-08T00:33:21;7.20;;;5.25;;
37407;SDS011;24866;50.248;8.252;2023-09-08T00:35:51;6.78;;;5.35;;
37407;SDS011;24866;50.248;8.252;2023-09-08T00:38:21;9.48;;;5.97;;
37407;SDS011;24866;50.248;8.252;2023-09-08T00:40:51;11.23;;;5.68;;
37407;SDS011;24866;50.248;8.252;2023-09-08T00:43:21;8.05;;;6.43;;
37407;SDS011;24866;50.248;8.252;2023-09-08T00:45:52;8.35;;;6.30;;
37407;SDS011;24866;50.248;8.252;2023-09-08T00:48:26;6.93;;;5.30;;
37407;SDS011;24866;50.248;8.252;2023-09-08T00:50:56;8.35;;;5.13;;
37407;SDS011;24866;50.248;8.252;2023-09-08T00:53:26;7.38;;;5.45;;
37407;SDS011;24866;50.248;8.252;2023-09-08T00:55:57;7.18;;;5.05;;
37407;SDS011;24866;50.248;8.252;2023-09-08T00:58:28;7.93;;;5.28;;
37407;SDS011;24866;50.248;8.252;2023-09-08T01:00:59;6.03;;;4.80;;
37407;SDS011;24866;50.248;8.252;2023-09-08T01:03:29;7.93;;;5.07;;
37407;SDS011;24866;50.248;8.252;2023-09-08T01:05:59;9.80;;;4.93;;
37407;SDS011;24866;50.248;8.252;2023-09-08T01:08:29;9.02;;;5.10;;
37407;SDS011;24866;50.248;8.252;2023-09-08T01:10:59;9.68;;;5.18;;
37407;SDS011;24866;50.248;8.252;2023-09-08T01:13:29;8.10;;;4.55;;
37407;SDS011;24866;50.248;8.252;2023-09-08T01:16:01;6.53;;;5.22;;
37407;SDS011;24866;50.248;8.252;2023-09-08T01:18:30;6.53;;;5.25;;
37407;SDS011;24866;50.248;8.252;2023-09-08T01:21:06;7.07;;;5.13;;
37407;SDS011;24866;50.248;8.252;2023-09-08T01:23:58;6.55;;;5.10;;
37407;SDS011;24866;50.248;8.252;2023-09-08T01:26:42;6.68;;;4.60;;
37407;SDS011;24866;50.248;8.252;2023-09-08T01:29:12;6.15;;;4.95;;
37407;SDS011;24866;50.248;8.252;2023-09-08T01:31:43;5.68;;;4.53;;
37407;SDS011;24866;50.248;8.252;2023-09-08T01:34:13;7.68;;;4.45;;
37407;SDS011;24866;50.248;8.252;2023-09-08T01:36:43;5.55;;;4.13;;
37407;SDS011;24866;50.248;8.252;2023-09-08T01:39:14;9.18;;;5.38;;
37407;SDS011;24866;50.248;8.252;2023-09-08T01:41:45;8.82;;;5.45;;
37407;SDS011;24866;50.248;8.252;2023-09-08T01:44:15;8.32;;;5.07;;
37407;SDS011;24866;50.248;8.252;2023-09-08T01:46:45;7.60;;;5.80;;
37407;SDS011;24866;50.248;8.252;2023-09-08T01:49:15;7.97;;;6.00;;
37407;SDS011;24866;50.248;8.252;2023-09-08T01:51:44;7.25;;;5.13;;
37407;SDS011;24866;50.248;8.252;2023-09-08T01:54:14;9.00;;;5.32;;
37407;SDS011;24866;50.248;8.252;2023-09-08T01:56:45;10.07;;;5.10;;
37407;SDS011;24866;50.248;8.252;2023-09-08T01:59:15;9.07;;;4.78;;
37407;SDS011;24866;50.248;8.252;2023-09-08T02:01:45;6.35;;;4.40;;
37407;SDS011;24866;50.248;8.252;2023-09-08T02:04:15;8.40;;;5.30;;
37407;SDS011;24866;50.248;8.252;2023-09-08T02:06:44;7.57;;;5.25;;
37407;SDS011;24866;50.248;8.252;2023-09-08T02:09:14;6.55;;;5.65;;
37407;SDS011;24866;50.248;8.252;2023-09-08T02:11:45;7.28;;;4.97;;
37407;SDS011;24866;50.248;8.252;2023-09-08T02:14:15;8.18;;;5.47;;
37407;SDS011;24866;50.248;8.252;2023-09-08T02:16:45;8.10;;;5.45;;
37407;SDS011;24866;50.248;8.252;2023-09-08T02:19:15;9.15;;;5.80;;
37407;SDS011;24866;50.248;8.252;2023-09-08T02:21:44;7.70;;;4.90;;
37407;SDS011;24866;50.248;8.252;2023-09-08T02:24:14;8.68;;;5.07;;
37407;SDS011;24866;50.248;8.252;2023-09-08T02:26:45;6.47;;;4.68;;
37407;SDS011;24866;50.248;8.252;2023-09-08T02:29:15;8.05;;;5.10;;
37407;SDS011;24866;50.248;8.252;2023-09-08T02:31:45;8.52;;;5.35;;
37407;SDS011;24866;50.248;8.252;2023-09-08T02:34:15;7.28;;;4.65;;
37407;SDS011;24866;50.248;8.252;2023-09-08T02:36:45;7.13;;;5.20;;
37407;SDS011;24866;50.248;8.252;2023-09-08T02:39:18;9.05;;;5.20;;
37407;SDS011;24866;50.248;8.252;2023-09-08T02:41:50;6.88;;;4.95;;
37407;SDS011;24866;50.248;8.252;2023-09-08T02:44:20;6.90;;;4.88;;
37407;SDS011;24866;50.248;8.252;2023-09-08T02:46:50;6.25;;;4.88;;
37407;SDS011;24866;50.248;8.252;2023-09-08T02:49:20;5.82;;;4.50;;
37407;SDS011;24866;50.248;8.252;2023-09-08T02:51:49;8.98;;;5.50;;
37407;SDS011;24866;50.248;8.252;2023-09-08T02:54:19;7.03;;;5.65;;
37407;SDS011;24866;50.248;8.252;2023-09-08T02:56:50;9.45;;;5.75;;
37407;SDS011;24866;50.248;8.252;2023-09-08T02:59:20;6.82;;;4.90;;
37407;SDS011;24866;50.248;8.252;2023-09-08T03:01:50;7.32;;;5.15;;
37407;SDS011;24866;50.248;8.252;2023-09-08T03:04:20;8.07;;;4.75;;
37407;SDS011;24866;50.248;8.252;2023-09-08T03:06:50;6.85;;;5.18;;
37407;SDS011;24866;50.248;8.252;2023-09-08T03:09:20;7.50;;;5.05;;
37407;SDS011;24866;50.248;8.252;2023-09-08T03:11:51;9.05;;;5.10;;
37407;SDS011;24866;50.248;8.252;2023-09-08T03:14:20;8.75;;;4.88;;
37407;SDS011;24866;50.248;8.252;2023-09-08T03:16:50;7.13;;;5.85;;
37407;SDS011;24866;50.248;8.252;2023-09-08T03:19:20;7.18;;;5.35;;
37407;SDS011;24866;50.248;8.252;2023-09-08T03:21:50;7.82;;;5.15;;
37407;SDS011;24866;50.248;8.252;2023-09-08T03:24:20;8.68;;;5.28;;
37407;SDS011;24866;50.248;8.252;2023-09-08T03:26:51;7.47;;;5.28;;
37407;SDS011;24866;50.248;8.252;2023-09-08T03:29:21;7.72;;;5.25;;
37407;SDS011;24866;50.248;8.252;2023-09-08T03:31:51;8.63;;;5.70;;
37407;SDS011;24866;50.248;8.252;2023-09-08T03:34:21;10.02;;;5.40;;
37407;SDS011;24866;50.248;8.252;2023-09-08T03:36:52;9.23;;;5.80;;
37407;SDS011;24866;50.248;8.252;2023-09-08T03:41:54;6.57;;;4.60;;
37407;SDS011;24866;50.248;8.252;2023-09-08T03:44:24;9.13;;;6.00;;
37407;SDS011;24866;50.248;8.252;2023-09-08T03:46:54;8.13;;;5.47;;
37407;SDS011;24866;50.248;8.252;2023-09-08T03:49:24;9.75;;;4.97;;
37407;SDS011;24866;50.248;8.252;2023-09-08T03:51:54;7.97;;;5.97;;
37407;SDS011;24866;50.248;8.252;2023-09-08T03:54:23;8.90;;;5.10;;
37407;SDS011;24866;50.248;8.252;2023-09-08T03:56:54;6.63;;;5.00;;
37407;SDS011;24866;50.248;8.252;2023-09-08T03:59:24;7.10;;;4.53;;
37407;SDS011;24866;50.248;8.252;2023-09-08T04:01:54;8.35;;;5.18;;
37407;SDS011;24866;50.248;8.252;2023-09-08T04:04:24;6.95;;;5.40;;
37407;SDS011;24866;50.248;8.252;2023-09-08T04:06:54;9.63;;;6.03;;
37407;SDS011;24866;50.248;8.252;2023-09-08T04:09:23;8.18;;;5.13;;
37407;SDS011;24866;50.248;8.252;2023-09-08T04:11:55;6.43;;;4.95;;
37407;SDS011;24866;50.248;8.252;2023-09-08T04:14:25;8.80;;;5.30;;
37407;SDS011;24866;50.248;8.252;2023-09-08T04:16:56;9.02;;;5.25;;
37407;SDS011;24866;50.248;8.252;2023-09-08T04:19:26;7.60;;;5.18;;
37407;SDS011;24866;50.248;8.252;2023-09-08T04:21:56;9.95;;;5.50;;
37407;SDS011;24866;50.248;8.252;2023-09-08T04:24:25;9.65;;;5.10;;
37407;SDS011;24866;50.248;8.252;2023-09-08T04:26:57;7.00;;;4.72;;
37407;SDS011;24866;50.248;8.252;2023-09-08T04:29:26;8.88;;;5.40;;
37407;SDS011;24866;50.248;8.252;2023-09-08T04:31:56;8.88;;;5.25;;
37407;SDS011;24866;50.248;8.252;2023-09-08T04:34:27;6.88;;;4.65;;
37407;SDS011;24866;50.248;8.252;2023-09-08T04:36:57;8.25;;;5.50;;
37407;SDS011;24866;50.248;8.252;2023-09-08T04:39:27;6.78;;;4.82;;
37407;SDS011;24866;50.248;8.252;2023-09-08T04:41:58;8.48;;;5.10;;
37407;SDS011;24866;50.248;8.252;2023-09-08T04:44:28;7.95;;;5.00;;
37407;SDS011;24866;50.248;8.252;2023-09-08T04:46:58;7.25;;;4.88;;
37407;SDS011;24866;50.248;8.252;2023-09-08T04:49:28;6.88;;;4.18;;
37407;SDS011;24866;50.248;8.252;2023-09-08T04:51:57;7.43;;;4.93;;
37407;SDS011;24866;50.248;8.252;2023-09-08T04:54:27;6.15;;;4.50;;
37407;SDS011;24866;50.248;8.252;2023-09-08T04:56:58;7.78;;;4.75;;
37407;SDS011;24866;50.248;8.252;2023-09-08T04:59:28;7.35;;;5.38;;
37407;SDS011;24866;50.248;8.252;2023-09-08T05:01:58;6.97;;;5.20;;
37407;SDS011;24866;50.248;8.252;2023-09-08T05:04:28;9.00;;;5.10;;
37407;SDS011;24866;50.248;8.252;2023-09-08T05:06:58;7.82;;;4.85;;
37407;SDS011;24866;50.248;8.252;2023-09-08T05:09:28;7.75;;;5.55;;
37407;SDS011;24866;50.248;8.252;2023-09-08T05:11:59;6.43;;;4.65;;
37407;SDS011;24866;50.248;8.252;2023-09-08T05:14:29;9.73;;;5.53;;
37407;SDS011;24866;50.248;8.252;2023-09-08T05:16:59;6.65;;;4.53;;
37407;SDS011;24866;50.248;8.252;2023-09-08T05:19:29;6.78;;;5.20;;
37407;SDS011;24866;50.248;8.252;2023-09-08T05:21:58;7.38;;;4.97;;
37407;SDS011;24866;50.248;8.252;2023-09-08T05:24:28;7.68;;;5.00;;
37407;SDS011;24866;50.248;8.252;2023-09-08T05:26:59;8.63;;;4.90;;
37407;SDS011;24866;50.248;8.252;2023-09-08T05:29:29;7.25;;;4.53;;
37407;SDS011;24866;50.248;8.252;2023-09-08T05:31:59;8.25;;;5.25;;
37407;SDS011;24866;50.248;8.252;2023-09-08T05:34:29;7.07;;;5.38;;
37407;SDS011;24866;50.248;8.252;2023-09-08T05:36:59;7.82;;;5.88;;
37407;SDS011;24866;50.248;8.252;2023-09-08T05:39:29;8.70;;;6.20;;
37407;SDS011;24866;50.248;8.252;2023-09-08T05:42:00;7.35;;;5.60;;
37407;SDS011;24866;50.248;8.252;2023-09-08T05:44:29;6.93;;;5.35;;
37407;SDS011;24866;50.248;8.252;2023-09-08T05:46:59;6.85;;;5.00;;
37407;SDS011;24866;50.248;8.252;2023-09-08T05:49:29;9.73;;;5.05;;
37407;SDS011;24866;50.248;8.252;2023-09-08T05:51:59;9.00;;;5.25;;
37407;SDS011;24866;50.248;8.252;2023-09-08T05:54:29;10.82;;;5.43;;
37407;SDS011;24866;50.248;8.252;2023-09-08T05:57:00;8.35;;;5.30;;
37407;SDS011;24866;50.248;8.252;2023-09-08T05:59:30;10.18;;;6.00;;
37407;SDS011;24866;50.248;8.252;2023-09-08T06:02:00;10.23;;;6.22;;
37407;SDS011;24866;50.248;8.252;2023-09-08T06:04:29;11.65;;;7.75;;
37407;SDS011;24866;50.248;8.252;2023-09-08T06:07:00;8.68;;;5.90;;
37407;SDS011;24866;50.248;8.252;2023-09-08T06:09:30;9.40;;;6.70;;
37407;SDS011;24866;50.248;8.252;2023-09-08T06:12:02;9.13;;;6.10;;
37407;SDS011;24866;50.248;8.252;2023-09-08T06:14:33;9.35;;;6.47;;
37407;SDS011;24866;50.248;8.252;2023-09-08T06:17:03;13.88;;;7.03;;
37407;SDS011;24866;50.248;8.252;2023-09-08T06:19:33;11.98;;;7.13;;
37407;SDS011;24866;50.248;8.252;2023-09-08T06:22:03;9.57;;;7.53;;
37407;SDS011;24866;50.248;8.252;2023-09-08T06:24:33;11.40;;;7.82;;
37407;SDS011;24866;50.248;8.252;2023-09-08T06:27:04;13.10;;;7.55;;
37407;SDS011;24866;50.248;8.252;2023-09-08T06:29:35;10.43;;;8.30;;
37407;SDS011;24866;50.248;8.252;2023-09-08T06:32:04;12.45;;;7.68;;
37407;SDS011;24866;50.248;8.252;2023-09-08T06:34:35;10.95;;;7.20;;
37407;SDS011;24866;50.248;8.252;2023-09-08T06:37:05;8.98;;;7.60;;
37407;SDS011;24866;50.248;8.252;2023-09-08T06:39:34;8.93;;;6.70;;
37407;SDS011;24866;50.248;8.252;2023-09-08T06:42:06;10.23;;;7.70;;
37407;SDS011;24866;50.248;8.252;2023-09-08T06:44:36;9.95;;;6.85;;
37407;SDS011;24866;50.248;8.252;2023-09-08T06:47:05;13.23;;;7.28;;
37407;SDS011;24866;50.248;8.252;2023-09-08T06:49:35;9.35;;;7.25;;
37407;SDS011;24866;50.248;8.252;2023-09-08T06:52:05;10.30;;;8.13;;
37407;SDS011;24866;50.248;8.252;2023-09-08T06:54:35;8.20;;;6.45;;
37407;SDS011;24866;50.248;8.252;2023-09-08T06:57:06;10.95;;;7.75;;
37407;SDS011;24866;50.248;8.252;2023-09-08T06:59:36;9.80;;;6.75;;
37407;SDS011;24866;50.248;8.252;2023-09-08T07:02:06;9.93;;;7.47;;
37407;SDS011;24866;50.248;8.252;2023-09-08T07:04:36;11.48;;;7.05;;
37407;SDS011;24866;50.248;8.252;2023-09-08T07:07:06;12.80;;;7.47;;
37407;SDS011;24866;50.248;8.252;2023-09-08T07:09:37;8.02;;;6.68;;
37407;SDS011;24866;50.248;8.252;2023-09-08T07:12:08;9.88;;;6.57;;
37407;SDS011;24866;50.248;8.252;2023-09-08T07:14:38;12.20;;;7.05;;
37407;SDS011;24866;50.248;8.252;2023-09-08T07:17:08;11.25;;;7.55;;
37407;SDS011;24866;50.248;8.252;2023-09-08T07:19:37;8.90;;;6.38;;
37407;SDS011;24866;50.248;8.252;2023-09-08T07:22:07;10.00;;;7.32;;
37407;SDS011;24866;50.248;8.252;2023-09-08T07:24:37;9.63;;;6.70;;
37407;SDS011;24866;50.248;8.252;2023-09-08T07:27:08;6.68;;;5.97;;
37407;SDS011;24866;50.248;8.252;2023-09-08T07:29:40;9.43;;;7.45;;
37407;SDS011;24866;50.248;8.252;2023-09-08T07:32:10;10.52;;;6.88;;
37407;SDS011;24866;50.248;8.252;2023-09-08T07:34:40;9.13;;;5.78;;
37407;SDS011;24866;50.248;8.252;2023-09-08T07:37:10;11.57;;;6.20;;
37407;SDS011;24866;50.248;8.252;2023-09-08T07:39:40;9.30;;;6.93;;
37407;SDS011;24866;50.248;8.252;2023-09-08T07:42:11;8.23;;;6.38;;
37407;SDS011;24866;50.248;8.252;2023-09-08T07:44:41;7.63;;;5.93;;
37407;SDS011;24866;50.248;8.252;2023-09-08T07:47:11;8.70;;;6.10;;
37407;SDS011;24866;50.248;8.252;2023-09-08T07:49:45;7.85;;;5.97;;
37407;SDS011;24866;50.248;8.252;2023-09-08T07:52:16;8.98;;;6.55;;
37407;SDS011;24866;50.248;8.252;2023-09-08T07:54:46;11.85;;;6.32;;
37407;SDS011;24866;50.248;8.252;2023-09-08T07:57:17;10.13;;;6.68;;
37407;SDS011;24866;50.248;8.252;2023-09-08T07:59:47;7.47;;;5.40;;
37407;SDS011;24866;50.248;8.252;2023-09-08T08:02:17;12.45;;;5.72;;
37407;SDS011;24866;50.248;8.252;2023-09-08T08:04:47;11.32;;;6.25;;
37407;SDS011;24866;50.248;8.252;2023-09-08T08:07:16;7.55;;;5.15;;
37407;SDS011;24866;50.248;8.252;2023-09-08T08:09:46;6.85;;;5.25;;
37407;SDS011;24866;50.248;8.252;2023-09-08T08:12:18;8.68;;;4.93;;
37407;SDS011;24866;50.248;8.252;2023-09-08T08:14:48;9.10;;;5.28;;
37407;SDS011;24866;50.248;8.252;2023-09-08T08:17:18;7.85;;;4.78;;
37407;SDS011;24866;50.248;8.252;2023-09-08T08:19:48;8.65;;;4.60;;
37407;SDS011;24866;50.248;8.252;2023-09-08T08:22:18;6.75;;;4.55;;
37407;SDS011;24866;50.248;8.252;2023-09-08T08:24:48;6.97;;;4.43;;
37407;SDS011;24866;50.248;8.252;2023-09-08T08:27:19;6.30;;;4.75;;
37407;SDS011;24866;50.248;8.252;2023-09-08T08:29:49;6.15;;;4.68;;
37407;SDS011;24866;50.248;8.252;2023-09-08T08:32:19;5.20;;;3.70;;
37407;SDS011;24866;50.248;8.252;2023-09-08T08:34:49;7.00;;;4.68;;
37407;SDS011;24866;50.248;8.252;2023-09-08T08:37:19;6.55;;;3.97;;
37407;SDS011;24866;50.248;8.252;2023-09-08T08:39:49;5.07;;;3.80;;
37407;SDS011;24866;50.248;8.252;2023-09-08T08:42:20;6.53;;;4.05;;
37407;SDS011;24866;50.248;8.252;2023-09-08T08:44:51;13.73;;;4.40;;
37407;SDS011;24866;50.248;8.252;2023-09-08T08:47:20;9.70;;;4.20;;
37407;SDS011;24866;50.248;8.252;2023-09-08T08:49:50;5.57;;;3.95;;
37407;SDS011;24866;50.248;8.252;2023-09-08T08:52:22;5.50;;;4.20;;
37407;SDS011;24866;50.248;8.252;2023-09-08T08:54:52;7.57;;;3.95;;
37407;SDS011;24866;50.248;8.252;2023-09-08T08:57:24;7.25;;;4.80;;
37407;SDS011;24866;50.248;8.252;2023-09-08T08:59:55;7.65;;;4.05;;
37407;SDS011;24866;50.248;8.252;2023-09-08T09:02:26;7.65;;;4.13;;
37407;SDS011;24866;50.248;8.252;2023-09-08T09:04:58;5.05;;;3.50;;
37407;SDS011;24866;50.248;8.252;2023-09-08T09:07:29;6.60;;;3.92;;
37407;SDS011;24866;50.248;8.252;2023-09-08T09:09:59;6.88;;;3.92;;
37407;SDS011;24866;50.248;8.252;2023-09-08T09:12:30;8.32;;;4.50;;
37407;SDS011;24866;50.248;8.252;2023-09-08T09:15:00;6.10;;;4.10;;
37407;SDS011;24866;50.248;8.252;2023-09-08T09:17:32;9.30;;;3.63;;
37407;SDS011;24866;50.248;8.252;2023-09-08T09:20:12;6.53;;;4.13;;
37407;SDS011;24866;50.248;8.252;2023-09-08T09:22:45;5.72;;;3.67;;
37407;SDS011;24866;50.248;8.252;2023-09-08T09:25:20;6.50;;;4.33;;
37407;SDS011;24866;50.248;8.252;2023-09-08T09:27:53;7.97;;;3.83;;
37407;SDS011;24866;50.248;8.252;2023-09-08T09:30:23;9.32;;;4.78;;
37407;SDS011;24866;50.248;8.252;2023-09-08T09:33:00;7.80;;;4.05;;
37407;SDS011;24866;50.248;8.252;2023-09-08T09:35:40;11.25;;;4.10;;
37407;SDS011;24866;50.248;8.252;2023-09-08T09:38:11;8.85;;;4.47;;
37407;SDS011;24866;50.248;8.252;2023-09-08T09:40:41;7.53;;;4.32;;
37407;SDS011;24866;50.248;8.252;2023-09-08T09:43:13;6.05;;;4.25;;
37407;SDS011;24866;50.248;8.252;2023-09-08T09:45:44;4.53;;;3.40;;
37407;SDS011;24866;50.248;8.252;2023-09-08T09:48:14;5.18;;;3.75;;
37407;SDS011;24866;50.248;8.252;2023-09-08T09:50:45;6.40;;;3.60;;
37407;SDS011;24866;50.248;8.252;2023-09-08T09:53:15;6.20;;;3.97;;
37407;SDS011;24866;50.248;8.252;2023-09-08T09:55:46;6.03;;;3.63;;
37407;SDS011;24866;50.248;8.252;2023-09-08T09:58:17;8.05;;;4.28;;
37407;SDS011;24866;50.248;8.252;2023-09-08T10:00:49;5.35;;;3.60;;
37407;SDS011;24866;50.248;8.252;2023-09-08T10:03:20;5.07;;;3.83;;
37407;SDS011;24866;50.248;8.252;2023-09-08T10:05:50;5.93;;;3.50;;
37407;SDS011;24866;50.248;8.252;2023-09-08T10:08:20;6.40;;;3.65;;
37407;SDS011;24866;50.248;8.252;2023-09-08T10:10:50;6.28;;;3.83;;
37407;SDS011;24866;50.248;8.252;2023-09-08T10:13:23;6.50;;;3.60;;
37407;SDS011;24866;50.248;8.252;2023-09-08T10:15:57;6.95;;;4.03;;
37407;SDS011;24866;50.248;8.252;2023-09-08T10:18:27;7.53;;;3.47;;
37407;SDS011;24866;50.248;8.252;2023-09-08T10:20:59;9.43;;;4.07;;
37407;SDS011;24866;50.248;8.252;2023-09-08T10:23:34;7.10;;;3.80;;
37407;SDS011;24866;50.248;8.252;2023-09-08T10:26:09;6.95;;;3.63;;
37407;SDS011;24866;50.248;8.252;2023-09-08T10:28:41;6.97;;;3.85;;
37407;SDS011;24866;50.248;8.252;2023-09-08T10:31:13;5.15;;;3.58;;
37407;SDS011;24866;50.248;8.252;2023-09-08T10:33:43;5.60;;;3.85;;
37407;SDS011;24866;50.248;8.252;2023-09-08T10:36:15;5.00;;;3.60;;
37407;SDS011;24866;50.248;8.252;2023-09-08T10:38:45;5.60;;;4.13;;
37407;SDS011;24866;50.248;8.252;2023-09-08T10:41:26;5.20;;;3.60;;
37407;SDS011;24866;50.248;8.252;2023-09-08T10:44:02;7.95;;;3.97;;
37407;SDS011;24866;50.248;8.252;2023-09-08T10:46:36;6.25;;;4.00;;
37407;SDS011;24866;50.248;8.252;2023-09-08T10:49:06;6.60;;;3.63;;
37407;SDS011;24866;50.248;8.252;2023-09-08T10:51:38;6.90;;;3.92;;
37407;SDS011;24866;50.248;8.252;2023-09-08T10:54:08;5.75;;;3.90;;
37407;SDS011;24866;50.248;8.252;2023-09-08T10:56:47;5.85;;;3.90;;
37407;SDS011;24866;50.248;8.252;2023-09-08T10:59:20;4.63;;;3.60;;
37407;SDS011;24866;50.248;8.252;2023-09-08T11:01:54;5.15;;;3.70;;
37407;SDS011;24866;50.248;8.252;2023-09-08T11:04:23;6.03;;;3.95;;
37407;SDS011;24866;50.248;8.252;2023-09-08T11:06:56;6.72;;;3.72;;
37407;SDS011;24866;50.248;8.252;2023-09-08T11:09:26;9.05;;;3.45;;
37407;SDS011;24866;50.248;8.252;2023-09-08T11:11:56;6.93;;;3.35;;
37407;SDS011;24866;50.248;8.252;2023-09-08T11:14:32;7.15;;;3.40;;
37407;SDS011;24866;50.248;8.252;2023-09-08T11:17:02;5.07;;;3.70;;
37407;SDS011;24866;50.248;8.252;2023-09-08T11:19:42;5.07;;;3.17;;
37407;SDS011;24866;50.248;8.252;2023-09-08T11:22:14;5.68;;;4.20;;
37407;SDS011;24866;50.248;8.252;2023-09-08T11:24:44;5.82;;;3.92;;
37407;SDS011;24866;50.248;8.252;2023-09-08T11:27:14;7.15;;;3.42;;
37407;SDS011;24866;50.248;8.252;2023-09-08T11:29:45;5.80;;;3.70;;
37407;SDS011;24866;50.248;8.252;2023-09-08T11:34:46;5.38;;;3.65;;
37407;SDS011;24866;50.248;8.252;2023-09-08T11:37:17;4.80;;;4.10;;
37407;SDS011;24866;50.248;8.252;2023-09-08T11:39:47;5.82;;;3.80;;
37407;SDS011;24866;50.248;8.252;2023-09-08T11:42:17;7.57;;;3.78;;
37407;SDS011;24866;50.248;8.252;2023-09-08T11:44:50;7.40;;;4.20;;
37407;SDS011;24866;50.248;8.252;2023-09-08T11:47:20;6.57;;;3.75;;
37407;SDS011;24866;50.248;8.252;2023-09-08T11:49:52;6.47;;;3.90;;
37407;SDS011;24866;50.248;8.252;2023-09-08T11:52:22;7.40;;;4.10;;
37407;SDS011;24866;50.248;8.252;2023-09-08T11:54:52;5.20;;;3.58;;
37407;SDS011;24866;50.248;8.252;2023-09-08T11:57:22;7.50;;;3.60;;
37407;SDS011;24866;50.248;8.252;2023-09-08T11:59:53;7.45;;;3.95;;
37407;SDS011;24866;50.248;8.252;2023-09-08T12:02:24;7.23;;;3.90;;
37407;SDS011;24866;50.248;8.252;2023-09-08T12:04:53;4.75;;;3.90;;
37407;SDS011;24866;50.248;8.252;2023-09-08T12:07:23;9.63;;;5.00;;
37407;SDS011;24866;50.248;8.252;2023-09-08T12:09:53;7.78;;;4.63;;
37407;SDS011;24866;50.248;8.252;2023-09-08T12:12:23;6.30;;;3.75;;
37407;SDS011;24866;50.248;8.252;2023-09-08T12:14:55;7.28;;;4.00;;
37407;SDS011;24866;50.248;8.252;2023-09-08T12:17:24;4.55;;;3.67;;
37407;SDS011;24866;50.248;8.252;2023-09-08T12:19:55;5.85;;;4.03;;
37407;SDS011;24866;50.248;8.252;2023-09-08T12:22:25;6.90;;;4.72;;
37407;SDS011;24866;50.248;8.252;2023-09-08T12:24:56;6.22;;;4.30;;
37407;SDS011;24866;50.248;8.252;2023-09-08T12:27:27;6.30;;;3.75;;
37407;SDS011;24866;50.248;8.252;2023-09-08T12:29:58;5.93;;;4.40;;
37407;SDS011;24866;50.248;8.252;2023-09-08T12:32:30;7.22;;;4.40;;
37407;SDS011;24866;50.248;8.252;2023-09-08T12:35:01;8.87;;;4.60;;
37407;SDS011;24866;50.248;8.252;2023-09-08T12:37:33;6.95;;;4.35;;
37407;SDS011;24866;50.248;8.252;2023-09-08T12:40:03;7.90;;;4.72;;
37407;SDS011;24866;50.248;8.252;2023-09-08T12:42:34;5.65;;;4.07;;
37407;SDS011;24866;50.248;8.252;2023-09-08T12:45:06;6.95;;;4.47;;
37407;SDS011;24866;50.248;8.252;2023-09-08T12:47:37;6.05;;;3.80;;
37407;SDS011;24866;50.248;8.252;2023-09-08T12:50:07;6.70;;;4.90;;
37407;SDS011;24866;50.248;8.252;2023-09-08T12:52:38;5.60;;;4.60;;
37407;SDS011;24866;50.248;8.252;2023-09-08T12:55:08;7.13;;;4.15;;
37407;SDS011;24866;50.248;8.252;2023-09-08T12:57:38;4.78;;;4.28;;
37407;SDS011;24866;50.248;8.252;2023-09-08T13:00:10;7.28;;;4.47;;
37407;SDS011;24866;50.248;8.252;2023-09-08T13:02:40;5.47;;;4.30;;
37407;SDS011;24866;50.248;8.252;2023-09-08T13:05:10;7.20;;;4.05;;
37407;SDS011;24866;50.248;8.252;2023-09-08T13:07:40;5.93;;;4.00;;
37407;SDS011;24866;50.248;8.252;2023-09-08T13:10:10;5.95;;;4.40;;
37407;SDS011;24866;50.248;8.252;2023-09-08T13:12:40;7.72;;;4.35;;
37407;SDS011;24866;50.248;8.252;2023-09-08T13:15:12;5.70;;;3.72;;
37407;SDS011;24866;50.248;8.252;2023-09-08T13:17:41;4.47;;;4.03;;
37407;SDS011;24866;50.248;8.252;2023-09-08T13:20:11;8.45;;;4.10;;
37407;SDS011;24866;50.248;8.252;2023-09-08T13:22:41;5.65;;;3.80;;
37407;SDS011;24866;50.248;8.252;2023-09-08T13:25:12;5.47;;;3.92;;
37407;SDS011;24866;50.248;8.252;2023-09-08T13:27:42;5.75;;;4.20;;
37407;SDS011;24866;50.248;8.252;2023-09-08T13:30:14;7.70;;;4.13;;
37407;SDS011;24866;50.248;8.252;2023-09-08T13:32:45;5.63;;;4.43;;
37407;SDS011;24866;50.248;8.252;2023-09-08T13:35:15;5.32;;;3.97;;
37407;SDS011;24866;50.248;8.252;2023-09-08T13:37:44;6.97;;;4.50;;
37407;SDS011;24866;50.248;8.252;2023-09-08T13:40:14;7.10;;;4.43;;
37407;SDS011;24866;50.248;8.252;2023-09-08T13:42:44;5.68;;;3.72;;
37407;SDS011;24866;50.248;8.252;2023-09-08T13:45:16;6.55;;;4.78;;
37407;SDS011;24866;50.248;8.252;2023-09-08T13:47:46;5.90;;;3.90;;
37407;SDS011;24866;50.248;8.252;2023-09-08T13:50:16;6.88;;;4.22;;
37407;SDS011;24866;50.248;8.252;2023-09-08T13:52:47;6.68;;;3.90;;
37407;SDS011;24866;50.248;8.252;2023-09-08T13:55:17;5.55;;;4.20;;
37407;SDS011;24866;50.248;8.252;2023-09-08T13:57:51;6.28;;;4.18;;
37407;SDS011;24866;50.248;8.252;2023-09-08T14:00:23;4.65;;;3.95;;
37407;SDS011;24866;50.248;8.252;2023-09-08T14:02:52;5.13;;;4.10;;
37407;SDS011;24866;50.248;8.252;2023-09-08T14:05:22;7.30;;;4.65;;
37407;SDS011;24866;50.248;8.252;2023-09-08T14:07:52;5.45;;;3.85;;
37407;SDS011;24866;50.248;8.252;2023-09-08T14:10:22;5.38;;;4.10;;
37407;SDS011;24866;50.248;8.252;2023-09-08T14:12:52;5.10;;;4.07;;
37407;SDS011;24866;50.248;8.252;2023-09-08T14:15:23;9.50;;;4.40;;
37407;SDS011;24866;50.248;8.252;2023-09-08T14:17:53;9.98;;;4.47;;
37407;SDS011;24866;50.248;8.252;2023-09-08T14:20:23;8.20;;;4.68;;
37407;SDS011;24866;50.248;8.252;2023-09-08T14:22:53;10.52;;;4.72;;
37407;SDS011;24866;50.248;8.252;2023-09-08T14:25:22;6.15;;;4.35;;
37407;SDS011;24866;50.248;8.252;2023-09-08T14:27:52;8.82;;;4.13;;
37407;SDS011;24866;50.248;8.252;2023-09-08T14:30:24;6.22;;;4.00;;
37407;SDS011;24866;50.248;8.252;2023-09-08T14:32:54;6.43;;;4.30;;
37407;SDS011;24866;50.248;8.252;2023-09-08T14:35:24;6.90;;;4.60;;
37407;SDS011;24866;50.248;8.252;2023-09-08T14:37:54;8.48;;;4.53;;
37407;SDS011;24866;50.248;8.252;2023-09-08T14:40:24;10.48;;;4.25;;
37407;SDS011;24866;50.248;8.252;2023-09-08T14:42:54;6.05;;;4.38;;
37407;SDS011;24866;50.248;8.252;2023-09-08T14:45:25;5.72;;;4.10;;
37407;SDS011;24866;50.248;8.252;2023-09-08T14:47:55;8.48;;;4.63;;
37407;SDS011;24866;50.248;8.252;2023-09-08T14:50:25;6.88;;;4.75;;
37407;SDS011;24866;50.248;8.252;2023-09-08T14:52:55;5.30;;;4.47;;
37407;SDS011;24866;50.248;8.252;2023-09-08T14:55:25;7.32;;;4.50;;
37407;SDS011;24866;50.248;8.252;2023-09-08T14:57:55;6.53;;;4.63;;
37407;SDS011;24866;50.248;8.252;2023-09-08T15:00:26;6.82;;;4.53;;
37407;SDS011;24866;50.248;8.252;2023-09-08T15:02:56;6.22;;;4.53;;
37407;SDS011;24866;50.248;8.252;2023-09-08T15:05:26;7.80;;;4.85;;
37407;SDS011;24866;50.248;8.252;2023-09-08T15:07:55;6.22;;;4.30;;
37407;SDS011;24866;50.248;8.252;2023-09-08T15:10:25;7.30;;;4.15;;